createdAt,value
2022-07-29T00:00:02.288Z,13.52
2022-07-29T00:02:33.456Z,13.59
2022-07-29T00:05:00.344Z,13.62
2022-07-29T00:07:27.259Z,13.66
2022-07-29T00:09:54.046Z,13.75
2022-07-29T00:12:25.576Z,13.84
2022-07-29T00:14:57.910Z,13.99
2022-07-29T00:17:25.339Z,14.13
2022-07-29T00:19:52.320Z,14.21
2022-07-29T00:22:19.627Z,14.41
2022-07-29T00:24:48.872Z,14.55
2022-07-29T00:27:15.628Z,14.59
2022-07-29T00:29:42.394Z,14.56
2022-07-29T00:32:09.173Z,14.56
2022-07-29T00:34:54.413Z,14.60
2022-07-29T00:37:21.189Z,14.55
2022-07-29T00:39:48.022Z,14.54
2022-07-29T00:42:14.820Z,14.55
2022-07-29T00:44:42.268Z,14.58
2022-07-29T00:47:11.688Z,14.54
2022-07-29T00:49:42.713Z,14.53
2022-07-29T00:52:11.118Z,14.55
2022-07-29T00:54:44.834Z,14.49
2022-07-29T00:57:13.093Z,14.48
2022-07-29T00:59:40.318Z,14.49
2022-07-29T01:02:07.171Z,14.44
2022-07-29T01:04:34.874Z,14.45
2022-07-29T01:07:05.682Z,14.48
2022-07-29T01:09:43.053Z,14.43
2022-07-29T01:12:16.250Z,14.42
2022-07-29T01:14:43.729Z,14.53
2022-07-29T01:17:31.992Z,14.54
2022-07-29T01:20:05.094Z,14.50
2022-07-29T01:22:35.185Z,14.52
2022-07-29T01:25:24.441Z,14.56
2022-07-29T01:28:22.977Z,14.57
2022-07-29T01:30:53.598Z,14.60
2022-07-29T01:33:41.495Z,14.59
2022-07-29T01:36:14.315Z,14.59
2022-07-29T01:38:43.766Z,14.62
2022-07-29T01:41:15.609Z,14.57
2022-07-29T01:43:54.841Z,14.53
2022-07-29T01:46:40.750Z,14.59
2022-07-29T01:49:12.313Z,14.54
2022-07-29T01:51:46.649Z,14.50
2022-07-29T01:54:31.742Z,14.47
2022-07-29T01:57:00.936Z,14.39
2022-07-29T01:59:29.938Z,14.39
2022-07-29T02:02:00.198Z,14.45
2022-07-29T02:04:29.751Z,14.41
2022-07-29T02:07:02.312Z,14.41
2022-07-29T02:09:31.533Z,14.36
2022-07-29T02:12:02.224Z,14.37
2022-07-29T02:14:34.511Z,14.37
2022-07-29T02:17:03.363Z,14.40
2022-07-29T02:19:33.037Z,14.43
2022-07-29T02:22:01.544Z,14.39
2022-07-29T02:24:30.856Z,14.33
2022-07-29T02:27:00.434Z,14.36
2022-07-29T02:29:29.596Z,14.38
2022-07-29T02:31:59.469Z,14.37
2022-07-29T02:34:29.294Z,14.33
2022-07-29T02:36:56.923Z,14.41
2022-07-29T02:39:25.415Z,14.33
2022-07-29T02:41:59.464Z,14.37
2022-07-29T02:44:30.068Z,14.33
2022-07-29T02:47:42.169Z,14.38
2022-07-29T02:50:49.815Z,14.35
2022-07-29T02:53:23.024Z,14.39
2022-07-29T02:55:56.495Z,14.38
2022-07-29T02:58:29.797Z,14.27
2022-07-29T03:00:59.497Z,14.31
2022-07-29T03:03:31.214Z,14.29
2022-07-29T03:05:59.091Z,14.28
2022-07-29T03:08:26.065Z,14.25
2022-07-29T03:10:54.633Z,14.26
2022-07-29T03:13:21.613Z,14.23
2022-07-29T03:15:49.200Z,14.20
2022-07-29T03:18:16.644Z,14.11
2022-07-29T03:20:44.221Z,14.08
2022-07-29T03:23:11.046Z,14.19
2022-07-29T03:25:38.193Z,14.14
2022-07-29T03:28:05.132Z,14.08
2022-07-29T03:30:32.180Z,14.11
2022-07-29T03:32:59.053Z,14.15
2022-07-29T03:35:25.906Z,14.10
2022-07-29T03:37:52.760Z,14.01
2022-07-29T03:40:34.055Z,13.98
2022-07-29T03:43:01.953Z,14.00
2022-07-29T03:45:31.759Z,14.03
2022-07-29T03:48:09.399Z,13.99
2022-07-29T03:50:37.604Z,13.89
2022-07-29T03:53:04.752Z,13.88
2022-07-29T03:55:38.732Z,13.96
2022-07-29T03:58:07.689Z,13.94
2022-07-29T04:00:35.340Z,13.94
2022-07-29T04:03:04.655Z,13.98
2022-07-29T04:05:37.853Z,14.00
2022-07-29T04:08:04.949Z,13.99
2022-07-29T04:10:34.012Z,14.03
2022-07-29T04:13:01.093Z,14.05
2022-07-29T04:15:31.334Z,14.12
2022-07-29T04:17:59.741Z,14.13
2022-07-29T04:20:26.734Z,14.21
2022-07-29T04:22:53.544Z,14.13
2022-07-29T04:25:20.422Z,14.23
2022-07-29T04:28:04.049Z,14.27
2022-07-29T04:30:31.922Z,14.23
2022-07-29T04:32:59.079Z,14.33
2022-07-29T04:35:25.981Z,14.37
2022-07-29T04:37:52.729Z,14.41
2022-07-29T04:40:19.713Z,14.45
2022-07-29T04:42:47.811Z,14.47
2022-07-29T04:45:15.072Z,14.52
2022-07-29T04:47:43.164Z,14.58
2022-07-29T04:50:10.922Z,14.66
2022-07-29T04:52:38.120Z,14.63
2022-07-29T04:55:06.676Z,14.65
2022-07-29T04:57:33.789Z,14.68
2022-07-29T05:00:00.880Z,14.72
2022-07-29T05:02:27.726Z,14.65
2022-07-29T05:04:54.521Z,14.67
2022-07-29T05:07:21.457Z,14.64
2022-07-29T05:09:48.294Z,14.62
2022-07-29T05:12:15.084Z,14.69
2022-07-29T05:14:41.960Z,14.71
2022-07-29T05:17:09.057Z,14.79
2022-07-29T05:19:39.647Z,14.70
2022-07-29T05:22:07.195Z,14.78
2022-07-29T05:24:34.046Z,14.70
2022-07-29T05:27:00.956Z,14.65
2022-07-29T05:29:44.518Z,14.78
2022-07-29T05:32:13.382Z,14.71
2022-07-29T05:34:51.279Z,14.70
2022-07-29T05:37:22.025Z,14.70
2022-07-29T05:39:56.129Z,14.71
2022-07-29T05:42:24.385Z,14.82
2022-07-29T05:44:51.167Z,14.70
2022-07-29T05:47:18.062Z,14.78
2022-07-29T05:49:44.857Z,14.92
2022-07-29T05:52:11.662Z,14.95
2022-07-29T05:54:38.482Z,14.97
2022-07-29T05:57:06.325Z,14.97
2022-07-29T05:59:37.433Z,15.02
2022-07-29T06:02:06.084Z,14.98
2022-07-29T06:04:34.607Z,15.06
2022-07-29T06:07:02.695Z,15.19
2022-07-29T06:09:29.945Z,15.39
2022-07-29T06:11:57.201Z,15.41
2022-07-29T06:14:23.974Z,15.45
2022-07-29T06:16:50.912Z,15.95
2022-07-29T06:19:17.703Z,16.17
2022-07-29T06:21:45.153Z,16.04
2022-07-29T06:24:13.458Z,16.28
2022-07-29T06:26:41.340Z,16.40
2022-07-29T06:29:09.050Z,16.46
2022-07-29T06:31:35.783Z,16.38
2022-07-29T06:34:02.535Z,16.33
2022-07-29T06:36:30.467Z,16.16
2022-07-29T06:38:57.260Z,16.27
2022-07-29T06:41:25.427Z,16.06
2022-07-29T06:43:56.882Z,16.34
2022-07-29T06:46:24.128Z,16.41
2022-07-29T06:48:52.608Z,16.53
2022-07-29T06:51:22.846Z,16.62
2022-07-29T06:53:59.610Z,16.71
2022-07-29T06:56:39.109Z,16.88
2022-07-29T06:59:08.447Z,16.68
2022-07-29T07:01:37.133Z,16.88
2022-07-29T07:04:04.295Z,17.03
2022-07-29T07:06:31.071Z,16.98
2022-07-29T07:08:57.932Z,17.01
2022-07-29T07:11:24.751Z,17.59
2022-07-29T07:13:51.521Z,17.35
2022-07-29T07:16:18.515Z,17.37
2022-07-29T07:18:46.306Z,17.74
2022-07-29T07:21:19.266Z,17.43
2022-07-29T07:23:47.097Z,17.37
2022-07-29T07:26:13.878Z,17.73
2022-07-29T07:28:40.649Z,17.78
2022-07-29T07:31:07.379Z,17.80
2022-07-29T07:33:34.196Z,17.71
2022-07-29T07:36:01.041Z,17.47
2022-07-29T07:38:27.908Z,17.74
2022-07-29T07:40:55.362Z,17.79
2022-07-29T07:43:22.844Z,17.92
2022-07-29T07:45:49.709Z,17.96
2022-07-29T07:48:16.644Z,17.96
2022-07-29T07:50:44.709Z,18.22
2022-07-29T07:53:11.734Z,18.21
2022-07-29T07:58:29.632Z,18.36
2022-07-29T08:00:56.519Z,18.32
2022-07-29T08:03:23.368Z,18.06
2022-07-29T08:05:52.695Z,18.13
2022-07-29T08:08:19.719Z,18.10
2022-07-29T08:10:53.058Z,18.34
2022-07-29T08:13:25.273Z,18.24
2022-07-29T08:16:02.623Z,18.00
2022-07-29T08:18:31.869Z,18.17
2022-07-29T08:21:00.095Z,18.35
2022-07-29T08:23:32.944Z,18.32
2022-07-29T08:26:14.779Z,18.75
2022-07-29T08:28:47.120Z,19.18
2022-07-29T08:31:15.062Z,19.06
2022-07-29T08:33:42.129Z,18.84
2022-07-29T08:36:09.595Z,19.16
2022-07-29T08:38:36.369Z,19.05
2022-07-29T08:41:03.219Z,19.01
2022-07-29T08:43:30.197Z,19.01
2022-07-29T08:45:57.262Z,19.41
2022-07-29T08:48:25.812Z,20.20
2022-07-29T08:50:57.149Z,19.94
2022-07-29T08:53:27.795Z,19.89
2022-07-29T08:55:55.665Z,20.52
2022-07-29T08:58:24.783Z,20.51
2022-07-29T09:00:57.858Z,20.58
2022-07-29T09:03:30.631Z,20.89
2022-07-29T09:05:59.075Z,21.04
2022-07-29T09:08:26.570Z,20.88
2022-07-29T09:10:54.400Z,21.16
2022-07-29T09:13:21.155Z,21.01
2022-07-29T09:15:47.930Z,21.32
2022-07-29T09:18:39.972Z,20.56
2022-07-29T09:21:28.257Z,20.38
2022-07-29T09:24:09.811Z,20.62
2022-07-29T09:26:40.057Z,20.26
2022-07-29T09:29:11.333Z,20.33
2022-07-29T09:31:40.494Z,20.08
2022-07-29T09:34:08.484Z,19.96
2022-07-29T09:36:47.145Z,19.65
2022-07-29T09:39:15.523Z,19.40
2022-07-29T09:41:56.317Z,19.49
2022-07-29T09:44:24.240Z,19.51
2022-07-29T09:47:06.893Z,19.40
2022-07-29T09:49:35.452Z,19.72
2022-07-29T09:52:04.822Z,19.75
2022-07-29T09:54:37.588Z,20.21
2022-07-29T09:57:10.758Z,20.50
2022-07-29T09:59:37.599Z,20.32
2022-07-29T10:02:22.736Z,20.10
2022-07-29T10:04:50.843Z,20.26
2022-07-29T10:07:17.681Z,20.54
2022-07-29T10:09:54.259Z,20.24
2022-07-29T10:12:21.088Z,20.32
2022-07-29T10:14:48.427Z,20.83
2022-07-29T10:17:17.134Z,21.11
2022-07-29T10:19:44.218Z,21.76
2022-07-29T10:22:11.643Z,22.08
2022-07-29T10:24:39.693Z,22.14
2022-07-29T10:27:08.955Z,22.20
2022-07-29T10:29:36.799Z,22.09
2022-07-29T10:32:21.853Z,21.82
2022-07-29T10:35:19.200Z,21.55
2022-07-29T10:38:17.453Z,21.34
2022-07-29T10:41:32.074Z,21.43
2022-07-29T10:47:00.993Z,21.13
2022-07-29T10:49:31.119Z,21.30
2022-07-29T10:52:08.220Z,20.95
2022-07-29T10:54:39.702Z,20.85
2022-07-29T10:57:52.999Z,21.08
2022-07-29T11:00:28.966Z,21.64
2022-07-29T11:02:57.562Z,21.29
2022-07-29T11:05:40.105Z,20.86
2022-07-29T11:08:20.157Z,21.16
2022-07-29T11:11:15.874Z,21.17
2022-07-29T11:13:44.289Z,21.40
2022-07-29T11:16:11.419Z,21.85
2022-07-29T11:19:13.918Z,22.17
2022-07-29T11:21:53.448Z,22.44
2022-07-29T11:24:33.210Z,21.77
2022-07-29T11:27:10.880Z,21.89
2022-07-29T11:29:52.174Z,22.04
2022-07-29T11:32:22.652Z,22.01
2022-07-29T11:35:17.370Z,22.64
2022-07-29T11:38:08.581Z,22.74
2022-07-29T11:40:38.611Z,23.25
2022-07-29T11:43:09.393Z,23.46
2022-07-29T11:45:47.179Z,23.70
2022-07-29T11:48:31.391Z,23.56
2022-07-29T11:51:00.546Z,22.96
2022-07-29T11:53:29.251Z,22.78
2022-07-29T11:56:00.436Z,22.77
2022-07-29T11:58:29.496Z,23.27
2022-07-29T12:00:57.681Z,23.92
2022-07-29T12:03:33.581Z,24.16
2022-07-29T12:06:02.598Z,24.60
2022-07-29T12:08:30.765Z,24.14
2022-07-29T12:10:57.788Z,24.57
2022-07-29T12:13:37.739Z,26.09
2022-07-29T12:16:05.571Z,26.60
2022-07-29T12:18:33.188Z,25.43
2022-07-29T12:21:04.660Z,25.69
2022-07-29T12:23:35.041Z,26.41
2022-07-29T12:26:07.608Z,25.77
2022-07-29T12:28:39.742Z,25.66
2022-07-29T12:31:08.208Z,25.94
2022-07-29T12:33:36.034Z,26.04
2022-07-29T12:36:10.486Z,25.51
2022-07-29T12:38:41.628Z,24.95
2022-07-29T12:41:08.818Z,25.93
2022-07-29T12:43:35.988Z,26.15
2022-07-29T12:46:14.875Z,26.20
2022-07-29T12:48:44.255Z,25.57
2022-07-29T12:51:13.346Z,26.15
2022-07-29T12:53:40.427Z,26.29
2022-07-29T12:56:40.620Z,26.36
2022-07-29T12:59:19.997Z,25.30
2022-07-29T13:01:50.148Z,24.36
2022-07-29T13:04:29.166Z,24.93
2022-07-29T13:07:01.442Z,24.78
2022-07-29T13:09:41.776Z,25.10
2022-07-29T13:12:13.835Z,25.29
2022-07-29T13:14:47.584Z,24.74
2022-07-29T13:17:23.948Z,25.08
2022-07-29T13:20:06.373Z,25.11
2022-07-29T13:22:36.800Z,24.15
2022-07-29T13:25:03.878Z,24.11
2022-07-29T13:27:33.259Z,23.83
2022-07-29T13:30:01.983Z,23.23
2022-07-29T13:32:30.932Z,23.64
2022-07-29T13:35:01.107Z,23.45
2022-07-29T13:37:30.662Z,23.66
2022-07-29T13:39:58.169Z,23.91
2022-07-29T13:42:25.909Z,24.33
2022-07-29T13:44:53.067Z,24.71
2022-07-29T13:47:20.777Z,25.06
2022-07-29T13:49:47.713Z,24.90
2022-07-29T13:52:15.151Z,25.06
2022-07-29T13:54:42.799Z,24.12
2022-07-29T13:57:11.943Z,24.72
2022-07-29T13:59:40.392Z,24.83
2022-07-29T14:02:07.739Z,25.02
2022-07-29T14:04:34.807Z,24.47
2022-07-29T14:07:03.724Z,24.68
2022-07-29T14:09:41.118Z,24.77
2022-07-29T14:12:09.501Z,24.96
2022-07-29T14:14:37.628Z,25.43
2022-07-29T14:17:07.222Z,25.44
2022-07-29T14:19:36.714Z,24.72
2022-07-29T14:22:05.931Z,24.74
2022-07-29T14:24:34.004Z,24.93
2022-07-29T14:27:04.702Z,24.85
2022-07-29T14:29:37.213Z,25.18
2022-07-29T14:32:09.066Z,25.04
2022-07-29T14:34:40.026Z,25.02
2022-07-29T14:37:07.331Z,25.06
2022-07-29T14:39:42.077Z,25.37
2022-07-29T14:42:12.331Z,25.58
2022-07-29T14:44:41.362Z,26.24
2022-07-29T14:47:08.485Z,26.26
2022-07-29T14:49:36.097Z,26.01
2022-07-29T14:52:03.424Z,26.02
2022-07-29T14:54:30.558Z,26.00
2022-07-29T14:56:58.509Z,25.96
2022-07-29T14:59:26.181Z,25.81
2022-07-29T15:01:53.499Z,25.56
2022-07-29T15:04:21.164Z,25.24
2022-07-29T15:06:48.136Z,24.53
2022-07-29T15:09:15.069Z,24.85
2022-07-29T15:11:41.901Z,24.67
2022-07-29T15:14:08.686Z,24.86
2022-07-29T15:16:41.958Z,25.26
2022-07-29T15:19:11.585Z,24.28
2022-07-29T15:21:48.066Z,23.98
2022-07-29T15:24:19.711Z,23.72
2022-07-29T15:26:47.295Z,24.41
2022-07-29T15:29:14.544Z,24.73
2022-07-29T15:31:41.413Z,26.75
2022-07-29T15:34:08.328Z,26.31
2022-07-29T15:36:51.402Z,25.86
2022-07-29T15:39:19.794Z,25.13
2022-07-29T15:41:46.949Z,24.68
2022-07-29T15:44:13.854Z,25.32
2022-07-29T15:46:59.604Z,25.08
2022-07-29T15:49:48.405Z,25.02
2022-07-29T15:52:24.753Z,23.90
2022-07-29T15:54:54.438Z,24.03
2022-07-29T15:57:21.342Z,24.18
2022-07-29T15:59:48.122Z,24.18
2022-07-29T16:02:14.890Z,24.17
2022-07-29T16:04:41.660Z,23.67
2022-07-29T16:07:08.509Z,23.36
2022-07-29T16:09:35.304Z,23.91
2022-07-29T16:12:02.112Z,24.18
2022-07-29T16:14:31.876Z,24.32
2022-07-29T16:16:58.905Z,24.44
2022-07-29T16:19:25.854Z,24.19
2022-07-29T16:21:55.887Z,24.41
2022-07-29T16:24:29.641Z,24.17
2022-07-29T16:26:57.542Z,23.69
2022-07-29T16:29:24.530Z,23.61
2022-07-29T16:31:51.392Z,23.61
2022-07-29T16:34:18.254Z,23.52
2022-07-29T16:36:47.840Z,23.25
2022-07-29T16:39:14.822Z,23.63
2022-07-29T16:41:42.285Z,23.42
2022-07-29T16:44:09.308Z,23.01
2022-07-29T16:46:37.373Z,23.18
2022-07-29T16:49:05.986Z,23.29
2022-07-29T16:51:32.823Z,23.18
2022-07-29T16:53:59.647Z,23.08
2022-07-29T16:56:26.396Z,22.94
2022-07-29T16:58:53.178Z,22.72
2022-07-29T17:01:20.018Z,22.54
2022-07-29T17:04:05.484Z,22.59
2022-07-29T17:06:39.670Z,22.38
2022-07-29T17:09:08.619Z,22.18
2022-07-29T17:11:53.593Z,21.94
2022-07-29T17:14:29.514Z,21.88
2022-07-29T17:17:03.143Z,21.69
2022-07-29T17:19:32.692Z,21.83
2022-07-29T17:22:13.074Z,21.64
2022-07-29T17:24:45.537Z,21.54
2022-07-29T17:27:12.663Z,21.47
2022-07-29T17:29:39.819Z,21.41
2022-07-29T17:32:08.988Z,21.32
2022-07-29T17:34:40.435Z,21.14
2022-07-29T17:37:09.684Z,20.89
2022-07-29T17:39:41.330Z,20.76
2022-07-29T17:42:09.783Z,20.65
2022-07-29T17:44:36.874Z,20.61
2022-07-29T17:47:05.631Z,20.62
2022-07-29T17:49:36.360Z,20.50
2022-07-29T17:52:05.012Z,20.50
2022-07-29T17:54:31.811Z,20.46
2022-07-29T17:56:58.828Z,20.47
2022-07-29T17:59:25.780Z,20.39
2022-07-29T18:01:53.217Z,20.27
2022-07-29T18:04:21.130Z,20.23
2022-07-29T18:06:47.974Z,20.08
2022-07-29T18:09:14.740Z,19.94
2022-07-29T18:11:44.450Z,19.82
2022-07-29T18:14:13.352Z,19.71
2022-07-29T18:16:40.635Z,19.61
2022-07-29T18:19:07.537Z,19.57
2022-07-29T18:21:45.784Z,19.47
2022-07-29T18:24:22.891Z,19.34
2022-07-29T18:26:49.623Z,19.21
2022-07-29T18:29:16.370Z,19.12
2022-07-29T18:31:43.214Z,19.06
2022-07-29T18:34:09.989Z,19.00
2022-07-29T18:36:37.097Z,18.92
2022-07-29T18:39:04.201Z,18.80
2022-07-29T18:41:31.369Z,18.65
2022-07-29T18:43:58.162Z,18.53
2022-07-29T18:46:25.449Z,18.39
2022-07-29T18:48:52.598Z,18.25
2022-07-29T18:51:19.477Z,18.08
2022-07-29T18:53:46.329Z,17.92
2022-07-29T18:56:13.177Z,17.87
2022-07-29T18:58:39.952Z,17.81
2022-07-29T19:01:07.430Z,17.72
2022-07-29T19:03:34.352Z,17.65
2022-07-29T19:06:01.176Z,17.49
2022-07-29T19:08:28.027Z,17.38
2022-07-29T19:10:54.805Z,17.28
2022-07-29T19:13:21.577Z,17.17
2022-07-29T19:15:48.393Z,17.09
2022-07-29T19:18:15.274Z,16.98
2022-07-29T19:20:42.189Z,16.86
2022-07-29T19:23:09.310Z,16.77
2022-07-29T19:25:36.138Z,16.70
2022-07-29T19:28:03.436Z,16.59
2022-07-29T19:30:30.221Z,16.51
2022-07-29T19:32:57.049Z,16.46
2022-07-29T19:35:32.849Z,16.38
2022-07-29T19:38:01.298Z,16.28
2022-07-29T19:40:29.061Z,16.21
2022-07-29T19:42:56.236Z,16.12
2022-07-29T19:45:24.873Z,16.01
2022-07-29T19:47:54.008Z,15.91
2022-07-29T19:50:22.902Z,15.81
2022-07-29T19:52:49.669Z,15.66
2022-07-29T19:55:16.599Z,15.58
2022-07-29T19:57:46.690Z,15.48
2022-07-29T20:00:15.528Z,15.39
2022-07-29T20:02:42.864Z,15.36
2022-07-29T20:05:10.603Z,15.28
2022-07-29T20:07:37.896Z,15.24
2022-07-29T20:10:06.497Z,15.21
2022-07-29T20:12:33.358Z,15.15
2022-07-29T20:15:00.188Z,15.07
2022-07-29T20:17:28.448Z,14.98
2022-07-29T20:19:56.336Z,14.92
2022-07-29T20:22:23.168Z,14.87
2022-07-29T20:24:50.727Z,14.83
2022-07-29T20:27:18.300Z,14.81
2022-07-29T20:29:45.104Z,14.78
2022-07-29T20:32:12.503Z,14.77
2022-07-29T20:34:41.296Z,14.72
2022-07-29T20:37:11.303Z,14.71
2022-07-29T20:39:38.050Z,14.70
2022-07-29T20:42:05.088Z,14.60
2022-07-29T20:44:32.193Z,14.49
2022-07-29T20:46:59.313Z,14.53
2022-07-29T20:49:26.633Z,14.61
2022-07-29T20:51:53.524Z,14.68
2022-07-29T20:54:20.267Z,14.75
2022-07-29T20:56:47.045Z,14.80
2022-07-29T20:59:13.813Z,14.77
2022-07-29T21:01:41.090Z,14.77
2022-07-29T21:04:07.995Z,14.78
2022-07-29T21:06:35.010Z,14.84
2022-07-29T21:09:01.946Z,15.06
2022-07-29T21:11:43.837Z,15.27
2022-07-29T21:14:30.279Z,15.33
2022-07-29T21:16:57.293Z,15.34
2022-07-29T21:19:24.258Z,15.27
2022-07-29T21:21:51.086Z,15.25
2022-07-29T21:24:19.117Z,15.19
2022-07-29T21:26:54.530Z,15.17
2022-07-29T21:29:31.703Z,15.06
2022-07-29T21:31:58.465Z,14.93
2022-07-29T21:34:27.982Z,14.89
2022-07-29T21:36:54.937Z,14.89
2022-07-29T21:39:21.722Z,14.84
2022-07-29T21:41:48.730Z,14.78
2022-07-29T21:44:15.452Z,14.67
2022-07-29T21:46:42.262Z,14.54
2022-07-29T21:49:09.032Z,14.43
2022-07-29T21:51:35.870Z,14.36
2022-07-29T21:54:03.730Z,14.31
2022-07-29T21:56:31.493Z,14.28
2022-07-29T21:58:58.370Z,14.25
2022-07-29T22:01:25.194Z,14.19
2022-07-29T22:03:52.057Z,14.16
2022-07-29T22:06:19.629Z,14.17
2022-07-29T22:08:47.906Z,14.23
2022-07-29T22:11:14.961Z,14.28
2022-07-29T22:13:41.721Z,14.30
2022-07-29T22:16:10.164Z,14.32
2022-07-29T22:18:36.914Z,14.30
2022-07-29T22:21:03.750Z,14.28
2022-07-29T22:23:30.989Z,14.23
2022-07-29T22:25:57.778Z,14.17
2022-07-29T22:28:24.553Z,14.00
2022-07-29T22:30:51.351Z,13.78
2022-07-29T22:33:18.351Z,13.61
2022-07-29T22:35:48.720Z,13.49
2022-07-29T22:38:19.448Z,13.38
2022-07-29T22:40:48.766Z,13.30
2022-07-29T22:43:17.498Z,13.27
2022-07-29T22:45:44.462Z,13.26
2022-07-29T22:48:11.646Z,13.26
2022-07-29T22:50:39.008Z,13.26
2022-07-29T22:53:05.998Z,13.24
2022-07-29T22:55:32.839Z,13.22
2022-07-29T22:57:59.626Z,13.13
2022-07-29T23:00:26.501Z,13.10
2022-07-29T23:02:53.294Z,13.06
2022-07-29T23:05:20.106Z,13.04
2022-07-29T23:07:46.872Z,13.08
2022-07-29T23:10:13.667Z,13.11
2022-07-29T23:12:40.401Z,13.11
2022-07-29T23:15:07.867Z,13.10
2022-07-29T23:17:36.266Z,13.12
2022-07-29T23:20:08.890Z,13.17
2022-07-29T23:22:36.889Z,13.26
2022-07-29T23:25:04.948Z,13.29
2022-07-29T23:27:32.116Z,13.26
2022-07-29T23:29:58.985Z,13.24
2022-07-29T23:32:25.762Z,13.23
2022-07-29T23:34:52.479Z,13.26
2022-07-29T23:37:19.240Z,13.23
2022-07-29T23:39:46.028Z,13.21
2022-07-29T23:42:12.833Z,13.16
2022-07-29T23:44:39.616Z,13.11
2022-07-29T23:47:06.554Z,13.12
2022-07-29T23:49:33.379Z,13.14
2022-07-29T23:52:00.169Z,13.26
2022-07-29T23:54:26.917Z,13.36
2022-07-29T23:56:53.752Z,13.47
2022-07-29T23:59:20.562Z,13.50
